Time;durP1;ratioP1;P1;durP2;ratioP2;P2;SDS_P1;SDS_P2;PMS_P1;PMS_P2;Temp;Humidity;BMP_temperature;BMP_pressure;BME280_temperature;BME280_humidity;BME280_pressure;Samples;Min_cycle;Max_cycle;Signal;HPM_P1;HPM_P2
2023/09/16 00:02:37;;;;;;;6.47;5.40;;;;;16.30;97161.00;;;;5066885;28;20219;-70
2023/09/16 00:05:26;;;;;;;10.53;6.40;;;;;16.50;97152.00;;;;5067071;28;20200;-70
2023/09/16 00:08:15;;;;;;;7.60;5.00;;;;;16.70;97158.00;;;;5063107;28;20216;-70
2023/09/16 00:11:09;;;;;;;7.40;4.93;;;;;16.30;97144.00;;;;5064697;28;20232;-71
2023/09/16 00:13:58;;;;;;;12.03;5.40;;;;;16.30;97154.00;;;;5059139;28;20684;-73
2023/09/16 00:16:47;;;;;;;4.70;4.10;;;;;16.00;97140.00;;;;5058914;28;20207;-72
2023/09/16 00:19:36;;;;;;;6.17;5.57;;;;;15.80;97151.00;;;;5064187;28;20199;-70
2023/09/16 00:22:26;;;;;;;5.23;4.27;;;;;15.80;97151.00;;;;5070103;28;20223;-70
2023/09/16 00:25:15;;;;;;;8.27;4.77;;;;;15.70;97141.00;;;;5065178;28;20215;-72
2023/09/16 00:28:06;;;;;;;5.60;5.03;;;;;15.50;97146.00;;;;5067512;28;20212;-70
2023/09/16 00:30:55;;;;;;;5.47;4.90;;;;;15.70;97149.00;;;;5066101;28;20228;-71
2023/09/16 00:33:44;;;;;;;7.80;4.60;;;;;16.00;97144.00;;;;5070751;28;20196;-70
2023/09/16 00:36:33;;;;;;;9.03;5.00;;;;;16.20;97148.00;;;;5069590;28;20737;-71
2023/09/16 00:39:22;;;;;;;12.33;5.10;;;;;16.00;97141.00;;;;5059190;28;20672;-70
2023/09/16 00:42:11;;;;;;;5.53;4.80;;;;;16.00;97134.00;;;;5067981;28;20230;-70
2023/09/16 00:45:02;;;;;;;5.77;4.43;;;;;15.80;97136.00;;;;5058693;28;20231;-70
2023/09/16 00:47:51;;;;;;;5.73;4.90;;;;;15.70;97125.00;;;;5062559;28;20200;-68
2023/09/16 00:50:41;;;;;;;5.97;5.23;;;;;15.80;97138.00;;;;5062717;28;20298;-70
2023/09/16 00:53:31;;;;;;;5.60;4.90;;;;;15.80;97131.00;;;;5068817;28;20625;-70
2023/09/16 00:56:20;;;;;;;5.07;4.57;;;;;15.60;97137.00;;;;5062179;28;20208;-71
2023/09/16 00:59:09;;;;;;;7.80;4.83;;;;;15.30;97138.00;;;;5061267;28;20212;-70
2023/09/16 01:02:01;;;;;;;6.00;5.03;;;;;15.10;97134.00;;;;5066073;28;20249;-71
2023/09/16 01:04:51;;;;;;;4.97;4.47;;;;;15.40;97139.00;;;;5062024;28;20225;-71
2023/09/16 01:07:41;;;;;;;5.00;4.27;;;;;15.50;97143.00;;;;5063988;28;20207;-71
2023/09/16 01:10:30;;;;;;;5.53;5.03;;;;;15.40;97148.00;;;;5065264;28;20227;-72
2023/09/16 01:13:19;;;;;;;6.20;4.27;;;;;15.30;97138.00;;;;5060127;28;20208;-71
2023/09/16 01:16:13;;;;;;;7.23;4.63;;;;;15.70;97137.00;;;;5063366;28;20205;-72
2023/09/16 01:19:12;;;;;;;7.80;4.70;;;;;15.90;97136.00;;;;5062157;28;20203;-70
2023/09/16 01:22:02;;;;;;;9.13;4.90;;;;;15.70;97119.00;;;;5058419;28;20219;-70
2023/09/16 01:24:53;;;;;;;5.87;4.40;;;;;15.50;97128.00;;;;5061809;28;20227;-70
2023/09/16 01:27:44;;;;;;;5.07;4.20;;;;;15.40;97125.00;;;;5071461;28;20677;-70
2023/09/16 01:30:36;;;;;;;7.53;5.70;;;;;15.40;97121.00;;;;5067223;28;20204;-71
2023/09/16 01:33:28;;;;;;;9.27;5.17;;;;;15.40;97121.00;;;;5066384;28;20210;-71
2023/09/16 01:36:20;;;;;;;5.17;4.67;;;;;15.10;97117.00;;;;5066953;28;20226;-70
2023/09/16 01:39:10;;;;;;;5.93;4.13;;;;;15.40;97116.00;;;;5067617;28;20207;-70
2023/09/16 01:42:00;;;;;;;7.37;4.90;;;;;15.60;97122.00;;;;5064399;28;20233;-71
2023/09/16 01:44:54;;;;;;;5.70;4.97;;;;;15.60;97119.00;;;;5057915;28;20267;-71
2023/09/16 01:47:44;;;;;;;5.83;4.77;;;;;15.50;97118.00;;;;5063703;28;20196;-70
2023/09/16 01:50:33;;;;;;;8.33;5.47;;;;;15.40;97132.00;;;;5062140;28;20581;-71
2023/09/16 01:53:22;;;;;;;6.20;5.43;;;;;15.20;97124.00;;;;5068252;28;20200;-70
2023/09/16 01:56:11;;;;;;;5.87;4.93;;;;;15.10;97121.00;;;;5058403;28;20204;-71
2023/09/16 01:59:00;;;;;;;6.83;5.07;;;;;14.90;97120.00;;;;5061053;28;20597;-71
2023/09/16 02:01:50;;;;;;;9.43;5.60;;;;;14.80;97121.00;;;;5068939;28;20223;-71
2023/09/16 02:04:43;;;;;;;5.80;4.23;;;;;14.70;97134.00;;;;5062552;28;20968;-69
2023/09/16 02:07:32;;;;;;;5.43;4.93;;;;;14.80;97135.00;;;;5061441;28;20235;-70
2023/09/16 02:10:21;;;;;;;7.67;5.13;;;;;15.20;97140.00;;;;5061974;28;20195;-71
2023/09/16 02:13:10;;;;;;;6.47;4.63;;;;;14.80;97132.00;;;;5058393;28;20676;-71
2023/09/16 02:15:59;;;;;;;7.83;6.47;;;;;14.80;97139.00;;;;5064351;28;20200;-72
2023/09/16 02:18:50;;;;;;;7.93;4.87;;;;;14.60;97142.00;;;;5058158;28;20205;-69
2023/09/16 02:21:39;;;;;;;4.80;4.40;;;;;14.90;97145.00;;;;5059849;28;20519;-71
2023/09/16 02:24:28;;;;;;;10.30;5.20;;;;;14.90;97148.00;;;;5054614;28;20220;-70
2023/09/16 02:27:18;;;;;;;5.70;5.20;;;;;15.20;97150.00;;;;5064975;28;20196;-71
2023/09/16 02:30:08;;;;;;;9.10;4.93;;;;;15.50;97154.00;;;;5065909;28;20207;-70
2023/09/16 02:32:57;;;;;;;6.77;4.53;;;;;15.60;97154.00;;;;5067153;28;20580;-71
2023/09/16 02:35:47;;;;;;;5.33;4.67;;;;;15.50;97155.00;;;;5066845;28;20208;-71
2023/09/16 02:38:36;;;;;;;5.20;4.70;;;;;15.50;97151.00;;;;5062041;28;20591;-70
2023/09/16 02:41:25;;;;;;;5.67;4.77;;;;;15.60;97144.00;;;;5063093;28;20227;-72
2023/09/16 02:44:14;;;;;;;5.53;5.03;;;;;15.50;97149.00;;;;5069030;28;20234;-71
2023/09/16 02:47:03;;;;;;;5.07;4.57;;;;;15.50;97148.00;;;;5059621;28;20205;-71
2023/09/16 02:49:52;;;;;;;7.43;4.03;;;;;15.60;97155.00;;;;5067836;28;20204;-70
2023/09/16 02:52:43;;;;;;;6.30;5.10;;;;;15.60;97148.00;;;;5063636;28;20735;-70
2023/09/16 02:55:32;;;;;;;7.40;5.23;;;;;15.70;97149.00;;;;5062206;28;20199;-72
2023/09/16 02:58:21;;;;;;;5.10;4.63;;;;;15.80;97150.00;;;;5066028;28;20208;-71
2023/09/16 03:01:11;;;;;;;5.70;4.40;;;;;15.50;97137.00;;;;5068841;28;20597;-70
2023/09/16 03:04:00;;;;;;;6.53;4.50;;;;;15.40;97145.00;;;;5063281;28;20215;-71
2023/09/16 03:06:49;;;;;;;5.13;3.90;;;;;15.30;97138.00;;;;5069711;28;20741;-71
2023/09/16 03:09:39;;;;;;;8.63;5.17;;;;;15.40;97143.00;;;;5070376;28;20208;-71
2023/09/16 03:12:28;;;;;;;6.17;4.90;;;;;15.60;97142.00;;;;5071204;28;20223;-71
2023/09/16 03:15:17;;;;;;;5.97;5.27;;;;;15.60;97139.00;;;;5068280;28;20196;-70
2023/09/16 03:18:06;;;;;;;5.33;4.53;;;;;15.50;97146.00;;;;5064342;28;20208;-72
2023/09/16 03:20:56;;;;;;;8.90;5.70;;;;;15.30;97147.00;;;;5060041;28;20697;-72
2023/09/16 03:23:46;;;;;;;5.67;4.97;;;;;15.30;97150.00;;;;5066515;28;20928;-71
2023/09/16 03:26:36;;;;;;;8.23;4.73;;;;;15.70;97146.00;;;;5068596;28;20224;-71
2023/09/16 03:29:26;;;;;;;5.27;4.77;;;;;15.50;97148.00;;;;5063960;28;20711;-72
2023/09/16 03:32:15;;;;;;;7.33;5.07;;;;;15.60;97151.00;;;;5064835;28;20239;-71
2023/09/16 03:35:04;;;;;;;4.87;4.37;;;;;15.50;97151.00;;;;5068093;28;20200;-69
2023/09/16 03:37:53;;;;;;;7.17;4.60;;;;;15.70;97143.00;;;;5060803;28;20215;-72
2023/09/16 03:40:42;;;;;;;7.70;4.70;;;;;15.70;97143.00;;;;5069672;28;20216;-70
2023/09/16 03:43:32;;;;;;;5.10;4.00;;;;;15.80;97129.00;;;;5068249;28;20723;-71
2023/09/16 03:46:21;;;;;;;6.20;5.37;;;;;15.90;97140.00;;;;5065154;28;20224;-71
2023/09/16 03:49:10;;;;;;;5.17;4.60;;;;;15.80;97137.00;;;;5069653;28;20212;-72
2023/09/16 03:52:00;;;;;;;5.40;4.90;;;;;15.70;97141.00;;;;5058246;28;20232;-71
2023/09/16 03:54:49;;;;;;;9.03;4.60;;;;;15.60;97132.00;;;;5062695;28;20666;-72
2023/09/16 03:57:38;;;;;;;5.77;4.60;;;;;15.40;97132.00;;;;5070179;28;20226;-70
2023/09/16 04:00:28;;;;;;;6.33;4.63;;;;;15.30;97131.00;;;;5061558;28;20207;-71
2023/09/16 04:03:17;;;;;;;8.90;5.27;;;;;15.40;97139.00;;;;5063586;28;20205;-70
2023/09/16 04:06:07;;;;;;;7.77;4.97;;;;;15.60;97132.00;;;;5070055;28;20231;-71
2023/09/16 04:08:56;;;;;;;5.73;4.77;;;;;15.60;97125.00;;;;5063364;28;20691;-71
2023/09/16 04:11:45;;;;;;;6.23;4.30;;;;;15.30;97135.00;;;;5069107;28;20251;-71
2023/09/16 04:14:34;;;;;;;7.53;4.33;;;;;15.20;97125.00;;;;5068556;28;20199;-71
2023/09/16 04:17:24;;;;;;;4.60;4.20;;;;;15.20;97136.00;;;;5067732;28;20215;-71
2023/09/16 04:20:14;;;;;;;5.37;4.57;;;;;15.50;97128.00;;;;5069616;28;20696;-70
2023/09/16 04:23:03;;;;;;;6.27;5.37;;;;;15.40;97136.00;;;;5067867;28;20612;-71
2023/09/16 04:25:55;;;;;;;7.57;4.97;;;;;15.50;97135.00;;;;5064265;28;20314;-71
2023/09/16 04:28:44;;;;;;;5.90;4.73;;;;;15.60;97124.00;;;;5069706;28;20230;-71
2023/09/16 04:31:33;;;;;;;5.33;4.83;;;;;15.50;97131.00;;;;5061906;28;20216;-71
2023/09/16 04:34:24;;;;;;;5.53;4.50;;;;;15.30;97135.00;;;;5066947;28;20204;-71
2023/09/16 04:37:14;;;;;;;6.67;4.63;;;;;15.40;97130.00;;;;5068821;28;20200;-72
2023/09/16 04:40:07;;;;;;;6.20;5.33;;;;;15.50;97132.00;;;;5056215;28;20481;-70
2023/09/16 04:42:56;;;;;;;6.37;4.87;;;;;15.50;97140.00;;;;5065569;28;20196;-71
2023/09/16 04:45:48;;;;;;;4.70;4.20;;;;;15.20;97132.00;;;;5068678;28;20234;-72
2023/09/16 04:48:37;;;;;;;5.40;4.17;;;;;15.40;97139.00;;;;5071095;28;20230;-72
2023/09/16 04:51:28;;;;;;;6.73;4.80;;;;;15.60;97128.00;;;;5061174;28;20234;-71
2023/09/16 04:54:17;;;;;;;8.90;5.23;;;;;15.70;97135.00;;;;5066155;28;20262;-71
2023/09/16 04:57:06;;;;;;;5.20;4.73;;;;;15.50;97136.00;;;;5066826;28;20219;-71
2023/09/16 04:59:55;;;;;;;5.00;4.50;;;;;15.40;97133.00;;;;5065196;28;20210;-73
2023/09/16 05:02:48;;;;;;;4.53;4.13;;;;;15.20;97138.00;;;;5063172;28;20221;-71
2023/09/16 05:05:37;;;;;;;8.47;4.40;;;;;15.40;97136.00;;;;5066174;28;20231;-70
2023/09/16 05:08:27;;;;;;;6.37;4.40;;;;;15.30;97131.00;;;;5058442;28;20210;-71
2023/09/16 05:11:16;;;;;;;4.60;4.10;;;;;15.50;97140.00;;;;5064256;28;20999;-71
2023/09/16 05:14:06;;;;;;;5.20;4.40;;;;;15.40;97138.00;;;;5062678;28;20215;-73
2023/09/16 05:16:55;;;;;;;6.17;3.97;;;;;15.30;97141.00;;;;5059808;28;20200;-71
2023/09/16 05:19:44;;;;;;;5.80;5.13;;;;;15.40;97144.00;;;;5063602;28;20203;-72
2023/09/16 05:22:33;;;;;;;7.57;4.70;;;;;15.40;97141.00;;;;5068286;28;20251;-71
2023/09/16 05:25:23;;;;;;;6.30;5.10;;;;;15.50;97138.00;;;;5066270;28;20587;-71
2023/09/16 05:28:12;;;;;;;5.70;4.53;;;;;15.60;97135.00;;;;5067244;28;20204;-72
2023/09/16 05:31:03;;;;;;;5.17;4.37;;;;;15.60;97131.00;;;;5062362;28;20228;-71
2023/09/16 05:33:52;;;;;;;5.67;5.17;;;;;15.50;97143.00;;;;5063963;28;20271;-72
2023/09/16 05:36:41;;;;;;;5.50;4.93;;;;;15.30;97141.00;;;;5067298;28;20196;-70
2023/09/16 05:39:30;;;;;;;5.80;5.20;;;;;15.30;97142.00;;;;5061118;28;20692;-72
2023/09/16 05:42:21;;;;;;;4.97;4.37;;;;;15.20;97133.00;;;;5063238;28;20226;-71
2023/09/16 05:45:11;;;;;;;6.90;5.13;;;;;15.20;97137.00;;;;5062046;28;20200;-71
2023/09/16 05:48:02;;;;;;;4.50;4.10;;;;;15.10;97131.00;;;;5058302;28;20200;-70
2023/09/16 05:50:57;;;;;;;5.63;4.33;;;;;14.70;97136.00;;;;5058560;28;20220;-69
2023/09/16 05:53:46;;;;;;;5.60;4.57;;;;;14.50;97122.00;;;;5067619;28;20225;-71
2023/09/16 05:56:37;;;;;;;5.03;4.13;;;;;14.60;97123.00;;;;5060171;28;20203;-71
2023/09/16 05:59:27;;;;;;;6.63;4.87;;;;;15.20;97123.00;;;;5064776;28;20696;-72
2023/09/16 06:02:17;;;;;;;8.03;5.60;;;;;15.20;97125.00;;;;5069431;28;20212;-72
2023/09/16 06:05:07;;;;;;;8.60;5.63;;;;;15.20;97130.00;;;;5070492;28;20586;-72
2023/09/16 06:07:56;;;;;;;5.83;4.90;;;;;15.30;97136.00;;;;5074591;28;20233;-72
2023/09/16 06:10:45;;;;;;;5.97;4.83;;;;;15.40;97132.00;;;;5064006;28;20240;-72
2023/09/16 06:13:34;;;;;;;7.20;5.37;;;;;15.60;97125.00;;;;5068007;28;20192;-71
2023/09/16 06:16:25;;;;;;;6.23;5.03;;;;;15.90;97130.00;;;;5074472;28;20218;-71
2023/09/16 06:19:14;;;;;;;5.10;4.60;;;;;16.10;97126.00;;;;5073286;28;20192;-72
2023/09/16 06:22:03;;;;;;;6.50;4.90;;;;;16.10;97124.00;;;;5073888;28;20227;-74
2023/09/16 06:24:53;;;;;;;6.63;5.20;;;;;16.40;97126.00;;;;5077090;28;20690;-71
2023/09/16 06:27:42;;;;;;;7.23;5.50;;;;;16.60;97129.00;;;;5071652;28;20310;-71
2023/09/16 06:30:32;;;;;;;5.90;4.70;;;;;16.80;97124.00;;;;5072263;28;20202;-72
2023/09/16 06:33:22;;;;;;;9.67;5.13;;;;;16.90;97126.00;;;;5070936;28;20219;-73
2023/09/16 06:36:11;;;;;;;5.60;4.80;;;;;17.00;97130.00;;;;5064879;28;20200;-71
2023/09/16 06:39:01;;;;;;;4.37;3.97;;;;;17.00;97122.00;;;;5062812;28;20215;-71
2023/09/16 06:41:50;;;;;;;4.60;4.20;;;;;17.10;97116.00;;;;5070129;28;20219;-72
2023/09/16 06:44:39;;;;;;;5.60;4.90;;;;;17.30;97121.00;;;;5071927;28;20211;-72
2023/09/16 06:47:28;;;;;;;6.30;4.87;;;;;17.60;97118.00;;;;5070325;28;20216;-73
2023/09/16 06:50:19;;;;;;;5.83;4.43;;;;;17.60;97124.00;;;;5068449;28;20207;-72
2023/09/16 06:53:08;;;;;;;6.53;4.80;;;;;17.50;97131.00;;;;5063629;28;20223;-71
2023/09/16 06:55:57;;;;;;;5.60;5.10;;;;;17.70;97125.00;;;;5057629;28;20215;-70
2023/09/16 06:58:46;;;;;;;8.43;5.23;;;;;18.00;97123.00;;;;5054444;28;20204;-72
2023/09/16 07:01:35;;;;;;;5.63;4.33;;;;;18.20;97138.00;;;;5062997;28;20723;-71
2023/09/16 07:04:26;;;;;;;6.90;5.03;;;;;18.40;97130.00;;;;5060162;28;20570;-71
2023/09/16 07:07:17;;;;;;;7.30;5.80;;;;;18.50;97133.00;;;;5057875;28;20293;-72
2023/09/16 07:10:07;;;;;;;5.80;4.63;;;;;18.60;97131.00;;;;5060846;28;20208;-73
2023/09/16 07:12:56;;;;;;;5.23;4.73;;;;;18.70;97134.00;;;;5062051;28;20223;-72
2023/09/16 07:15:45;;;;;;;4.80;4.40;;;;;18.90;97133.00;;;;5063509;28;20215;-70
2023/09/16 07:18:35;;;;;;;7.40;5.00;;;;;19.10;97127.00;;;;5059715;28;20204;-72
2023/09/16 07:21:24;;;;;;;4.83;4.40;;;;;19.10;97132.00;;;;5062439;28;20728;-72
2023/09/16 07:24:14;;;;;;;8.70;5.83;;;;;19.30;97128.00;;;;5058059;28;20220;-72
2023/09/16 07:27:04;;;;;;;6.57;4.87;;;;;19.70;97137.00;;;;5065296;28;20227;-71
2023/09/16 07:29:53;;;;;;;9.87;6.43;;;;;20.10;97136.00;;;;5055427;28;20223;-70
2023/09/16 07:32:43;;;;;;;6.20;5.30;;;;;20.40;97145.00;;;;5060097;23;20259;-84
2023/09/16 07:35:32;;;;;;;6.90;5.33;;;;;20.70;97142.00;;;;5030368;28;20225;-84
2023/09/16 07:38:21;;;;;;;7.33;5.53;;;;;20.70;97142.00;;;;5026720;28;20202;-85
2023/09/16 07:41:12;;;;;;;6.73;5.37;;;;;20.80;97147.00;;;;5027632;28;20205;-86
2023/09/16 07:44:01;;;;;;;5.83;5.17;;;;;21.20;97142.00;;;;5029155;28;20228;-85
2023/09/16 07:46:50;;;;;;;5.33;4.57;;;;;21.40;97141.00;;;;5033673;28;20233;-84
2023/09/16 07:49:39;;;;;;;4.90;4.40;;;;;21.60;97143.00;;;;5032413;28;20224;-86
2023/09/16 07:52:29;;;;;;;7.10;4.77;;;;;21.60;97149.00;;;;5033159;28;20206;-86
2023/09/16 07:55:18;;;;;;;7.50;4.60;;;;;21.90;97143.00;;;;5029559;28;20277;-86
2023/09/16 07:58:09;;;;;;;6.50;4.73;;;;;21.90;97142.00;;;;5026655;28;20201;-87
2023/09/16 08:00:58;;;;;;;5.80;4.77;;;;;22.10;97136.00;;;;5032245;28;20694;-85
2023/09/16 08:03:47;;;;;;;5.97;4.17;;;;;22.30;97138.00;;;;5032500;28;20886;-88
2023/09/16 08:06:36;;;;;;;6.73;4.80;;;;;22.40;97138.00;;;;5024733;28;20217;-87
2023/09/16 08:09:25;;;;;;;4.20;3.80;;;;;22.50;97137.00;;;;5028094;28;20651;-85
2023/09/16 08:12:14;;;;;;;5.40;4.37;;;;;22.70;97140.00;;;;5026846;28;20208;-84
2023/09/16 08:15:06;;;;;;;4.80;4.30;;;;;22.90;97142.00;;;;5028398;28;20233;-85
2023/09/16 08:17:55;;;;;;;6.80;4.57;;;;;23.10;97140.00;;;;5028015;28;20670;-85
2023/09/16 08:20:45;;;;;;;5.07;4.23;;;;;23.20;97144.00;;;;5030113;28;20201;-87
2023/09/16 08:23:34;;;;;;;6.87;4.00;;;;;23.30;97144.00;;;;5027253;28;20687;-85
2023/09/16 08:26:23;;;;;;;4.87;4.37;;;;;23.20;97145.00;;;;5024488;28;20210;-86
2023/09/16 08:29:12;;;;;;;5.17;4.67;;;;;23.40;97137.00;;;;5029323;28;20223;-88
2023/09/16 08:32:02;;;;;;;8.87;4.17;;;;;23.70;97146.00;;;;5028567;28;20247;-86
2023/09/16 08:34:51;;;;;;;6.53;3.67;;;;;23.90;97145.00;;;;5042565;28;20221;-88
2023/09/16 08:37:40;;;;;;;3.87;3.47;;;;;24.00;97139.00;;;;5046309;28;20197;-87
2023/09/16 08:40:32;;;;;;;4.97;3.43;;;;;23.90;97129.00;;;;5029147;28;20198;-88
2023/09/16 08:43:29;;;;;;;5.30;4.47;;;;;24.10;97133.00;;;;5029090;28;20205;-88
2023/09/16 08:46:19;;;;;;;6.80;4.47;;;;;24.30;97129.00;;;;5029161;28;20205;-88
2023/09/16 08:49:12;;;;;;;4.07;3.67;;;;;24.20;97125.00;;;;5034662;28;20225;-86
2023/09/16 08:52:01;;;;;;;5.63;3.93;;;;;24.50;97135.00;;;;5033867;28;20201;-87
2023/09/16 08:54:51;;;;;;;4.17;3.70;;;;;24.40;97132.00;;;;5026812;28;20221;-88
2023/09/16 08:57:41;;;;;;;3.73;3.43;;;;;24.40;97134.00;;;;5034518;28;20223;-86
2023/09/16 09:00:31;;;;;;;4.40;4.00;;;;;24.30;97131.00;;;;5029198;28;20328;-89
2023/09/16 09:03:20;;;;;;;6.47;4.80;;;;;24.30;97129.00;;;;5026250;28;20206;-87
2023/09/16 09:06:12;;;;;;;7.00;3.70;;;;;24.80;97130.00;;;;5032056;28;20603;-86
2023/09/16 09:09:02;;;;;;;3.93;3.57;;;;;24.90;97140.00;;;;5028008;28;20260;-87
2023/09/16 09:11:51;;;;;;;5.10;4.03;;;;;24.00;97129.00;;;;5025425;28;20209;-87
2023/09/16 09:14:41;;;;;;;5.67;3.80;;;;;25.10;97144.00;;;;5026517;28;20225;-88
2023/09/16 09:17:37;;;;;;;3.90;3.60;;;;;25.60;97142.00;;;;5023186;28;20198;-86
2023/09/16 09:20:27;;;;;;;5.27;4.43;;;;;25.80;97135.00;;;;5030729;28;20674;-87
2023/09/16 09:23:18;;;;;;;5.47;3.83;;;;;26.20;97132.00;;;;5031384;28;20228;-86
2023/09/16 09:26:07;;;;;;;4.93;4.43;;;;;26.30;97141.00;;;;5028302;28;20213;-87
2023/09/16 09:28:58;;;;;;;8.37;3.80;;;;;26.30;97140.00;;;;5022674;28;20225;-87
2023/09/16 09:31:47;;;;;;;4.77;4.00;;;;;26.60;97138.00;;;;5016806;28;20698;-87
2023/09/16 09:34:36;;;;;;;5.10;4.20;;;;;26.90;97144.00;;;;5026292;28;20222;-86
2023/09/16 09:37:25;;;;;;;4.37;3.97;;;;;26.80;97150.00;;;;5031000;28;20210;-88
2023/09/16 09:40:16;;;;;;;4.60;4.13;;;;;26.70;97134.00;;;;5028578;28;20206;-86
2023/09/16 09:43:05;;;;;;;3.97;3.63;;;;;27.10;97154.00;;;;5028051;28;20210;-87
2023/09/16 09:45:55;;;;;;;5.13;3.70;;;;;26.70;97165.00;;;;5024354;28;20211;-90
2023/09/16 09:48:44;;;;;;;4.17;3.77;;;;;26.30;97143.00;;;;5025725;28;20197;-87
2023/09/16 09:51:33;;;;;;;4.67;3.70;;;;;26.50;97157.00;;;;5020797;28;20203;-88
2023/09/16 09:54:22;;;;;;;4.60;3.37;;;;;26.60;97155.00;;;;5029908;28;20232;-87
2023/09/16 09:57:13;;;;;;;5.20;4.53;;;;;26.10;97152.00;;;;5024765;28;20222;-87
2023/09/16 10:00:02;;;;;;;5.33;3.87;;;;;26.00;97154.00;;;;5029943;28;20224;-86
2023/09/16 10:02:52;;;;;;;5.60;3.43;;;;;25.80;97152.00;;;;5025894;28;20224;-87
2023/09/16 10:05:41;;;;;;;4.10;3.10;;;;;25.80;97137.00;;;;5026118;28;20583;-87
2023/09/16 10:08:31;;;;;;;4.10;3.17;;;;;25.70;97145.00;;;;5026841;28;20220;-86
2023/09/16 10:11:22;;;;;;;4.80;3.60;;;;;26.00;97142.00;;;;5028341;28;20205;-86
2023/09/16 10:14:12;;;;;;;3.90;3.17;;;;;25.60;97142.00;;;;5021970;28;20229;-85
2023/09/16 10:17:01;;;;;;;5.97;3.63;;;;;25.30;97134.00;;;;5022273;28;20204;-87
2023/09/16 10:19:51;;;;;;;5.23;3.27;;;;;25.60;97128.00;;;;5029674;28;20615;-87
2023/09/16 10:22:41;;;;;;;3.93;3.53;;;;;27.10;97112.00;;;;5024610;28;20198;-86
2023/09/16 10:25:30;;;;;;;4.83;3.73;;;;;26.70;97112.00;;;;5025686;28;20221;-87
2023/09/16 10:28:22;;;;;;;3.57;2.97;;;;;27.20;97115.00;;;;5026013;28;20206;-86
2023/09/16 10:31:13;;;;;;;4.00;3.53;;;;;27.10;97088.00;;;;5021780;28;20672;-87
2023/09/16 10:34:03;;;;;;;4.10;3.70;;;;;28.40;97084.00;;;;5026573;28;20703;-87
2023/09/16 10:36:52;;;;;;;3.77;3.47;;;;;27.60;97111.00;;;;5022871;28;20750;-86
2023/09/16 10:39:42;;;;;;;4.43;3.50;;;;;28.60;97120.00;;;;5021175;28;20592;-86
2023/09/16 10:42:32;;;;;;;3.73;3.43;;;;;27.40;97115.00;;;;5028331;28;20200;-87
2023/09/16 10:45:22;;;;;;;3.33;3.03;;;;;26.50;97119.00;;;;5023135;28;20705;-84
2023/09/16 10:48:12;;;;;;;7.87;3.73;;;;;26.70;97110.00;;;;5026523;28;20211;-87
2023/09/16 10:51:06;;;;;;;3.90;3.10;;;;;26.80;97100.00;;;;5023931;28;20669;-86
2023/09/16 10:54:03;;;;;;;4.57;3.10;;;;;27.30;97062.00;;;;5018278;28;20732;-86
2023/09/16 10:56:52;;;;;;;3.70;3.10;;;;;25.80;97106.00;;;;5021509;28;20203;-85
2023/09/16 10:59:42;;;;;;;3.30;3.00;;;;;25.70;97104.00;;;;5023392;28;20596;-85
2023/09/16 11:02:34;;;;;;;4.93;2.90;;;;;28.00;97066.00;;;;5027393;28;20205;-85
2023/09/16 11:05:25;;;;;;;4.33;3.03;;;;;28.50;97113.00;;;;5023042;28;20227;-86
2023/09/16 11:08:14;;;;;;;3.63;3.33;;;;;27.60;97111.00;;;;5024562;28;20200;-86
2023/09/16 11:11:04;;;;;;;3.10;2.80;;;;;27.00;97072.00;;;;5027506;28;20205;-86
2023/09/16 11:13:53;;;;;;;3.20;2.90;;;;;26.50;97107.00;;;;5023625;28;20242;-86
2023/09/16 11:16:46;;;;;;;3.40;3.10;;;;;26.40;97044.00;;;;5028212;28;20215;-87
2023/09/16 11:19:38;;;;;;;3.30;2.97;;;;;28.10;97054.00;;;;5026861;28;20254;-85
2023/09/16 11:22:30;;;;;;;3.30;3.00;;;;;30.10;97048.00;;;;5028393;28;20288;-85
2023/09/16 11:25:19;;;;;;;2.63;2.00;;;;;31.20;97063.00;;;;5024415;28;20231;-87
2023/09/16 11:28:10;;;;;;;2.87;2.57;;;;;31.80;97079.00;;;;5024510;28;20208;-87
2023/09/16 11:31:01;;;;;;;3.27;2.97;;;;;29.40;97110.00;;;;5028647;28;20684;-87
2023/09/16 11:33:50;;;;;;;4.63;3.23;;;;;27.20;97095.00;;;;5022879;28;20248;-85
2023/09/16 11:36:44;;;;;;;3.27;2.57;;;;;28.90;97058.00;;;;5024725;28;20283;-86
2023/09/16 11:39:43;;;;;;;2.63;2.43;;;;;30.90;97055.00;;;;5024810;28;20225;-87
2023/09/16 11:42:32;;;;;;;4.03;2.53;;;;;31.30;97067.00;;;;5031261;28;20211;-88
2023/09/16 11:45:23;;;;;;;4.38;2.60;;;;;30.70;97070.00;;;;5027493;28;20239;-88
2023/09/16 11:48:12;;;;;;;2.72;2.38;;;;;29.40;97028.00;;;;5032368;28;20579;-88
2023/09/16 11:51:01;;;;;;;3.00;2.78;;;;;31.20;97074.00;;;;5023429;28;20205;-87
2023/09/16 11:53:51;;;;;;;2.70;2.50;;;;;32.20;97032.00;;;;5028709;28;20220;-87
2023/09/16 11:56:41;;;;;;;2.78;2.45;;;;;30.90;97093.00;;;;5030779;28;20220;-87
2023/09/16 11:59:30;;;;;;;2.25;2.05;;;;;29.90;97096.00;;;;5029954;28;20224;-87
2023/09/16 12:02:20;;;;;;;3.72;3.42;;;;;28.40;97088.00;;;;5033156;28;20213;-85
2023/09/16 12:05:10;;;;;;;2.92;2.70;;;;;28.70;97088.00;;;;5032242;28;20227;-88
2023/09/16 12:07:59;;;;;;;3.17;2.83;;;;;28.20;97078.00;;;;5025027;28;20290;-85
2023/09/16 12:10:48;;;;;;;5.73;3.17;;;;;28.00;97057.00;;;;5032775;28;20211;-87
2023/09/16 12:13:40;;;;;;;2.87;2.60;;;;;28.60;97071.00;;;;5032164;28;20201;-86
2023/09/16 12:16:32;;;;;;;3.43;3.13;;;;;28.30;97079.00;;;;5023935;28;20203;-86
2023/09/16 12:19:21;;;;;;;3.63;3.33;;;;;27.50;97071.00;;;;5023569;28;20219;-86
2023/09/16 12:22:11;;;;;;;7.80;3.80;;;;;26.40;97020.00;;;;5020907;28;20283;-86
2023/09/16 12:25:01;;;;;;;3.80;3.27;;;;;28.80;97009.00;;;;5028228;28;21575;-85
2023/09/16 12:27:50;;;;;;;4.13;2.80;;;;;28.70;97008.00;;;;5030741;28;20658;-85
2023/09/16 12:30:44;;;;;;;2.60;2.40;;;;;28.90;97058.00;;;;5027667;28;20212;-86
2023/09/16 12:33:44;;;;;;;4.13;3.47;;;;;28.70;97063.00;;;;5025813;28;20203;-86
2023/09/16 12:36:33;;;;;;;3.13;2.83;;;;;28.40;97068.00;;;;5020374;28;20216;-85
2023/09/16 12:39:23;;;;;;;3.50;2.77;;;;;28.10;97058.00;;;;5029870;28;20230;-85
2023/09/16 12:42:12;;;;;;;3.37;3.10;;;;;28.50;97062.00;;;;5032532;28;20208;-86
2023/09/16 12:45:05;;;;;;;3.60;3.27;;;;;28.80;97064.00;;;;5031523;28;20222;-86
2023/09/16 12:47:56;;;;;;;3.03;2.77;;;;;28.90;97056.00;;;;5026446;28;20206;-86
2023/09/16 12:50:45;;;;;;;4.53;3.23;;;;;29.10;97044.00;;;;5031501;28;20215;-86
2023/09/16 12:53:34;;;;;;;4.20;3.10;;;;;29.40;97007.00;;;;5029414;28;20215;-85
2023/09/16 12:56:24;;;;;;;3.07;2.70;;;;;31.50;97000.00;;;;5031275;28;20211;-86
2023/09/16 12:59:14;;;;;;;3.20;2.77;;;;;30.60;97054.00;;;;5024004;28;20225;-85
2023/09/16 13:02:04;;;;;;;3.90;3.08;;;;;30.00;97029.00;;;;5028912;28;20204;-86
2023/09/16 13:05:13;;;;;;;3.47;3.17;;;;;30.80;97041.00;;;;5021169;28;20709;-85
2023/09/16 13:08:03;;;;;;;4.85;2.80;;;;;31.90;96999.00;;;;5024652;28;20216;-85
2023/09/16 13:10:54;;;;;;;3.08;2.78;;;;;30.80;96982.00;;;;5027431;28;20207;-84
2023/09/16 13:13:43;;;;;;;2.95;2.50;;;;;30.70;96993.00;;;;5029605;28;20204;-85
2023/09/16 13:16:35;;;;;;;2.70;2.50;;;;;31.20;96974.00;;;;5029933;28;20252;-85
2023/09/16 13:19:25;;;;;;;3.60;2.55;;;;;31.60;96981.00;;;;5025443;28;20279;-87
2023/09/16 13:22:17;;;;;;;4.82;2.80;;;;;30.40;97042.00;;;;5024462;28;20219;-84
2023/09/16 13:25:27;;;;;;;4.13;2.80;;;;;30.80;97039.00;;;;5025775;28;20241;-84
2023/09/16 13:28:17;;;;;;;4.07;2.92;;;;;30.40;97037.00;;;;5027039;28;20215;-84
2023/09/16 13:31:06;;;;;;;2.53;2.33;;;;;28.70;96987.00;;;;5054399;28;20217;-88
2023/09/16 13:34:00;;;;;;;3.80;2.88;;;;;29.70;97035.00;;;;5045972;28;20206;-89
2023/09/16 13:36:49;;;;;;;3.67;2.50;;;;;29.30;97037.00;;;;5038551;28;20215;-86
2023/09/16 13:39:46;;;;;;;4.35;3.38;;;;;28.70;97035.00;;;;5032461;28;20232;-88
2023/09/16 13:42:36;;;;;;;2.70;2.50;;;;;28.30;97025.00;;;;5028964;28;20207;-86
2023/09/16 13:45:25;;;;;;;3.50;2.60;;;;;28.20;97026.00;;;;5032896;28;20240;-87
2023/09/16 13:48:17;;;;;;;3.23;2.77;;;;;28.40;96979.00;;;;5030618;28;20214;-87
2023/09/16 13:51:07;;;;;;;3.20;2.87;;;;;28.80;97027.00;;;;5026853;28;20214;-88
2023/09/16 13:53:56;;;;;;;3.13;2.63;;;;;28.00;97025.00;;;;5022918;28;20253;-88
2023/09/16 13:56:46;;;;;;;2.97;2.67;;;;;27.80;97025.00;;;;5031416;28;20212;-87
2023/09/16 13:59:35;;;;;;;3.37;2.97;;;;;27.80;97025.00;;;;5026563;28;20673;-85
2023/09/16 14:02:24;;;;;;;2.40;2.20;;;;;28.00;97015.00;;;;5028544;28;20225;-85
2023/09/16 14:05:13;;;;;;;3.03;2.73;;;;;28.10;97017.00;;;;5026845;28;20231;-88
2023/09/16 14:08:02;;;;;;;3.37;2.97;;;;;28.30;97010.00;;;;5024441;28;20210;-87
2023/09/16 14:10:52;;;;;;;3.97;2.77;;;;;27.80;97009.00;;;;5028230;28;20193;-86
2023/09/16 14:13:42;;;;;;;4.07;3.67;;;;;28.30;97005.00;;;;5026337;28;20220;-87